createdAt,value
2022-09-05T00:02:30.957Z,3.03
2022-09-05T00:05:35.210Z,3.00
2022-09-05T00:08:18.034Z,3.28
2022-09-05T00:11:39.401Z,2.72
2022-09-05T00:13:43.500Z,3.30
2022-09-05T00:16:34.184Z,3.17
2022-09-05T00:24:20.641Z,3.15
2022-09-05T00:24:37.159Z,3.05
2022-09-05T00:25:40.046Z,2.70
2022-09-05T00:28:25.876Z,2.97
2022-09-05T00:31:53.910Z,2.83
2022-09-05T00:34:16.265Z,3.30
2022-09-05T00:36:46.642Z,2.85
2022-09-05T00:39:19.698Z,3.35
2022-09-05T00:41:50.617Z,2.83
2022-09-05T00:44:21.674Z,2.90
2022-09-05T00:46:57.243Z,3.17
2022-09-05T00:49:29.043Z,2.80
2022-09-05T00:52:01.684Z,2.90
2022-09-05T00:54:57.013Z,2.65
2022-09-05T00:57:53.950Z,2.92
2022-09-05T01:00:24.296Z,2.83
2022-09-05T01:03:19.223Z,2.78
2022-09-05T01:06:00.357Z,3.00
2022-09-05T01:08:43.140Z,2.75
2022-09-05T01:11:15.189Z,2.70
2022-09-05T01:13:47.102Z,2.63
2022-09-05T01:16:24.384Z,2.67
2022-09-05T01:19:01.716Z,3.00
2022-09-05T01:22:01.493Z,2.53
2022-09-05T01:25:05.238Z,2.80
2022-09-05T01:29:14.527Z,3.08
2022-09-05T01:30:41.087Z,2.55
2022-09-05T01:33:19.473Z,3.13
2022-09-05T01:36:22.419Z,3.08
2022-09-05T01:40:11.607Z,2.53
2022-09-05T01:41:54.471Z,3.05
2022-09-05T01:44:47.394Z,2.70
2022-09-05T01:47:37.026Z,2.72
2022-09-05T01:50:22.037Z,2.60
2022-09-05T01:53:05.433Z,2.60
2022-09-05T01:56:04.008Z,2.47
2022-09-05T01:58:53.048Z,2.60
2022-09-05T02:01:33.060Z,2.92
2022-09-05T02:04:35.142Z,2.83
2022-09-05T02:07:19.870Z,2.78
2022-09-05T02:10:38.315Z,2.80
2022-09-05T02:13:19.513Z,2.92
2022-09-05T02:15:57.741Z,2.30
2022-09-05T02:18:42.226Z,2.90
2022-09-05T02:21:12.884Z,2.63
2022-09-05T02:23:45.338Z,2.50
2022-09-05T02:26:18.052Z,2.42
2022-09-05T02:28:51.325Z,2.58
2022-09-05T02:31:22.885Z,2.80
2022-09-05T02:34:01.939Z,3.03
2022-09-05T02:36:36.944Z,2.80
2022-09-05T02:45:00.200Z,2.40
2022-09-05T02:45:21.696Z,2.60
2022-09-05T02:45:25.488Z,2.80
2022-09-05T02:48:12.717Z,2.85
2022-09-05T02:57:26.301Z,2.72
2022-09-05T02:57:37.223Z,2.63
2022-09-05T02:57:43.082Z,2.42
2022-09-05T03:00:05.716Z,2.53
2022-09-05T03:02:45.973Z,2.80
2022-09-05T03:05:19.227Z,2.70
2022-09-05T03:08:24.205Z,2.50
2022-09-05T03:11:31.068Z,2.50
2022-09-05T03:14:56.474Z,2.67
2022-09-05T03:17:54.640Z,2.20
2022-09-05T03:21:08.961Z,2.75
2022-09-05T03:24:21.706Z,2.53
2022-09-05T03:27:33.908Z,2.90
2022-09-05T03:30:12.303Z,3.05
2022-09-05T03:33:21.906Z,2.80
2022-09-05T03:36:47.808Z,2.60
2022-09-05T03:40:00.717Z,2.95
2022-09-05T03:42:53.868Z,2.92
2022-09-05T03:45:58.092Z,3.03
2022-09-05T03:48:41.148Z,2.90
2022-09-05T03:57:04.465Z,2.92
2022-09-05T03:57:14.942Z,2.53
2022-09-05T03:58:31.814Z,2.80
2022-09-05T04:02:46.470Z,2.90
2022-09-05T04:08:10.979Z,2.75
2022-09-05T04:08:24.351Z,3.00
2022-09-05T04:09:51.530Z,2.78
2022-09-05T04:12:22.570Z,2.60
2022-09-05T04:14:53.520Z,2.78
2022-09-05T04:17:28.617Z,2.80
2022-09-05T04:20:01.139Z,2.90
2022-09-05T04:22:36.476Z,3.00
2022-09-05T04:25:12.476Z,2.60
2022-09-05T04:27:47.378Z,3.00
2022-09-05T04:30:38.270Z,2.70
2022-09-05T04:33:16.991Z,2.50
2022-09-05T04:35:53.326Z,3.25
2022-09-05T04:38:37.147Z,3.60
2022-09-05T04:41:09.597Z,3.05
2022-09-05T04:43:42.001Z,3.15
2022-09-05T04:46:19.727Z,3.35
2022-09-05T04:48:55.980Z,3.20
2022-09-05T04:52:00.771Z,2.80
2022-09-05T04:54:35.690Z,3.00
2022-09-05T04:57:16.143Z,2.67
2022-09-05T05:06:05.502Z,3.03
2022-09-05T05:06:10.314Z,3.05
2022-09-05T05:06:17.541Z,2.80
2022-09-05T05:08:23.531Z,3.08
2022-09-05T05:16:39.793Z,2.88
2022-09-05T05:18:09.259Z,2.40
2022-09-05T05:18:14.998Z,3.40
2022-09-05T05:19:47.338Z,2.70
2022-09-05T05:22:30.685Z,2.75
2022-09-05T05:24:59.224Z,3.30
2022-09-05T05:27:29.810Z,3.20
2022-09-05T05:30:03.305Z,2.97
2022-09-05T05:32:46.165Z,3.20
2022-09-05T05:35:17.023Z,2.80
2022-09-05T05:37:46.938Z,3.05
2022-09-05T05:40:21.108Z,3.28
2022-09-05T05:42:49.689Z,2.78
2022-09-05T05:45:21.497Z,3.00
2022-09-05T05:47:51.511Z,3.03
2022-09-05T05:50:34.487Z,2.95
2022-09-05T05:53:42.433Z,3.60
2022-09-05T05:56:40.077Z,3.75
2022-09-05T05:59:33.317Z,3.05
2022-09-05T06:03:24.927Z,3.30
2022-09-05T06:06:23.019Z,3.58
2022-09-05T06:15:02.809Z,3.35
2022-09-05T06:15:06.531Z,3.40
2022-09-05T06:17:01.095Z,3.63
2022-09-05T06:22:06.098Z,3.50
2022-09-05T06:24:21.434Z,3.17
2022-09-05T06:27:03.069Z,3.50
2022-09-05T06:29:39.765Z,2.97
2022-09-05T06:32:22.125Z,3.03
2022-09-05T06:35:27.675Z,3.72
2022-09-05T06:38:12.914Z,3.40
2022-09-05T06:40:48.905Z,3.55
2022-09-05T06:43:33.026Z,3.30
2022-09-05T06:46:13.097Z,3.38
2022-09-05T06:49:30.817Z,3.35
2022-09-05T06:52:29.424Z,3.70
2022-09-05T06:55:50.327Z,3.55
2022-09-05T06:58:53.968Z,3.35
2022-09-05T07:01:59.568Z,3.97
2022-09-05T07:05:24.164Z,3.67
2022-09-05T07:07:24.453Z,3.17
2022-09-05T07:09:59.586Z,3.80
2022-09-05T07:12:30.377Z,4.10
2022-09-05T07:15:14.576Z,3.60
2022-09-05T07:18:09.500Z,3.85
2022-09-05T07:21:15.622Z,4.30
2022-09-05T07:24:06.140Z,8.35
2022-09-05T07:26:54.694Z,5.90
2022-09-05T07:29:27.719Z,5.78
2022-09-05T07:31:57.104Z,7.30
2022-09-05T07:34:29.108Z,11.45
2022-09-05T07:37:14.316Z,14.23
2022-09-05T07:39:49.447Z,15.07
2022-09-05T07:42:21.446Z,13.63
2022-09-05T07:44:54.116Z,12.70
2022-09-05T07:47:24.548Z,10.32
2022-09-05T07:51:27.950Z,10.02
2022-09-05T07:56:50.492Z,10.10
2022-09-05T07:57:10.466Z,8.65
2022-09-05T07:58:26.132Z,8.40
2022-09-05T08:00:56.367Z,9.20
2022-09-05T08:03:27.689Z,8.10
2022-09-05T08:05:58.369Z,7.50
2022-09-05T08:08:30.010Z,8.07
2022-09-05T08:11:25.476Z,7.60
2022-09-05T08:14:38.451Z,8.23
2022-09-05T08:16:48.095Z,7.63
2022-09-05T08:19:41.931Z,6.68
2022-09-05T08:22:16.285Z,7.03
2022-09-05T08:24:48.291Z,44.80
2022-09-05T08:27:20.163Z,45.10
2022-09-05T08:29:57.408Z,31.02
2022-09-05T08:32:46.527Z,33.40
2022-09-05T08:35:18.899Z,26.83
2022-09-05T08:37:48.178Z,31.67
2022-09-05T08:40:27.204Z,58.05
2022-09-05T08:44:14.956Z,39.85
2022-09-05T08:46:47.489Z,35.33
2022-09-05T08:49:37.893Z,45.13
2022-09-05T08:52:11.705Z,43.33
2022-09-05T08:54:49.304Z,37.65
2022-09-05T08:57:20.297Z,30.17
2022-09-05T09:00:18.702Z,31.95
2022-09-05T09:03:04.042Z,24.55
2022-09-05T09:06:22.193Z,27.27
2022-09-05T09:09:06.196Z,24.55
2022-09-05T09:11:36.807Z,23.92
2022-09-05T09:14:32.082Z,20.88
2022-09-05T09:17:10.818Z,17.45
2022-09-05T09:19:48.087Z,16.10
2022-09-05T09:22:24.430Z,16.67
2022-09-05T09:25:14.739Z,15.32
2022-09-05T09:28:47.477Z,14.00
2022-09-05T09:30:58.900Z,12.65
2022-09-05T09:33:38.165Z,11.75
2022-09-05T09:36:11.311Z,10.40
2022-09-05T09:38:47.167Z,10.30
2022-09-05T09:41:45.482Z,9.02
2022-09-05T09:45:22.518Z,8.45
2022-09-05T09:48:52.223Z,7.28
2022-09-05T09:51:34.911Z,7.10
2022-09-05T09:54:49.481Z,6.95
2022-09-05T09:57:56.020Z,6.20
2022-09-05T10:00:24.895Z,6.25
2022-09-05T10:09:15.019Z,5.85
2022-09-05T10:10:47.499Z,5.80
2022-09-05T10:10:54.220Z,5.38
2022-09-05T10:13:29.258Z,4.88
2022-09-05T10:16:45.599Z,4.88
2022-09-05T10:20:10.882Z,4.90
2022-09-05T10:23:04.232Z,5.10
2022-09-05T10:26:01.804Z,4.65
2022-09-05T10:28:36.516Z,4.40
2022-09-05T10:33:10.493Z,4.45
2022-09-05T10:35:18.285Z,4.60
2022-09-05T10:36:58.000Z,4.88
2022-09-05T10:39:30.057Z,4.10
2022-09-05T10:42:03.597Z,4.22
2022-09-05T10:44:40.748Z,4.38
2022-09-05T10:47:19.335Z,3.88
2022-09-05T10:49:50.920Z,4.03
2022-09-05T10:52:23.168Z,4.28
2022-09-05T10:55:14.962Z,4.00
2022-09-05T10:57:58.039Z,4.20
2022-09-05T11:02:21.385Z,3.90
2022-09-05T11:03:53.896Z,4.50
2022-09-05T11:06:28.275Z,4.38
2022-09-05T11:09:03.140Z,3.80
2022-09-05T11:11:39.578Z,3.92
2022-09-05T11:14:27.452Z,4.25
2022-09-05T11:16:57.018Z,4.20
2022-09-05T11:19:29.756Z,3.80
2022-09-05T11:22:05.270Z,4.00
2022-09-05T11:24:51.973Z,3.88
2022-09-05T11:27:28.993Z,3.95
2022-09-05T11:29:59.578Z,3.92
2022-09-05T11:39:51.928Z,3.85
2022-09-05T11:39:54.023Z,3.60
2022-09-05T11:40:04.116Z,3.92
2022-09-05T11:42:25.827Z,3.78
2022-09-05T11:45:06.033Z,3.95
2022-09-05T11:48:34.090Z,3.97
2022-09-05T11:51:39.828Z,3.47
2022-09-05T11:55:01.800Z,3.60
2022-09-05T11:57:47.189Z,3.72
2022-09-05T12:00:33.554Z,3.60
2022-09-05T12:03:57.323Z,3.80
2022-09-05T12:06:57.441Z,3.53
2022-09-05T12:09:39.011Z,3.70
2022-09-05T12:12:39.576Z,3.50
2022-09-05T12:15:26.113Z,3.80
2022-09-05T12:18:12.473Z,3.88
2022-09-05T12:21:07.927Z,3.85
2022-09-05T12:24:36.806Z,3.80
2022-09-05T12:27:41.322Z,3.92
2022-09-05T12:29:38.795Z,3.58
2022-09-05T12:34:02.755Z,3.90
2022-09-05T12:36:13.113Z,3.92
2022-09-05T12:40:44.809Z,3.50
2022-09-05T12:41:42.756Z,3.17
2022-09-05T12:44:38.435Z,3.60
2022-09-05T12:47:16.678Z,3.47
2022-09-05T12:50:02.818Z,3.65
2022-09-05T12:52:44.926Z,3.58
2022-09-05T12:55:22.901Z,3.60
2022-09-05T13:02:40.302Z,3.30
2022-09-05T13:03:04.284Z,3.40
2022-09-05T13:03:53.526Z,3.90
2022-09-05T13:06:31.214Z,3.50
2022-09-05T13:09:04.323Z,3.35
2022-09-05T13:14:54.430Z,3.25
2022-09-05T13:14:56.697Z,3.53
2022-09-05T13:17:22.050Z,3.53
2022-09-05T13:19:52.252Z,3.20
2022-09-05T13:22:23.973Z,3.30
2022-09-05T13:25:00.041Z,3.50
2022-09-05T13:27:31.919Z,3.67
2022-09-05T13:33:18.592Z,3.33
2022-09-05T13:37:55.275Z,3.22
2022-09-05T13:38:12.464Z,3.30
2022-09-05T13:38:56.144Z,3.35
2022-09-05T13:41:28.876Z,3.15
2022-09-05T13:44:24.766Z,3.60
2022-09-05T13:46:58.703Z,3.50
2022-09-05T13:49:32.265Z,3.30
2022-09-05T13:52:21.233Z,4.38
2022-09-05T13:54:53.467Z,6.57
2022-09-05T13:57:33.143Z,5.60
2022-09-05T14:00:53.585Z,5.25
2022-09-05T14:04:05.825Z,4.55
2022-09-05T14:10:35.856Z,4.70
2022-09-05T14:13:05.778Z,5.50
2022-09-05T14:15:40.986Z,5.68
2022-09-05T14:18:21.577Z,5.63
2022-09-05T14:21:15.281Z,6.53
2022-09-05T14:23:54.104Z,6.22
2022-09-05T14:26:30.287Z,5.50
2022-09-05T14:29:07.525Z,5.82
2022-09-05T14:37:39.200Z,5.22
2022-09-05T14:37:40.362Z,5.47
2022-09-05T14:38:09.534Z,4.65
2022-09-05T14:41:47.133Z,4.90
2022-09-05T14:44:58.143Z,4.65
2022-09-05T14:47:49.631Z,4.13
2022-09-05T14:50:40.701Z,4.35
2022-09-05T14:57:23.313Z,4.85
2022-09-05T15:02:41.334Z,4.30
2022-09-05T15:02:43.485Z,3.95
2022-09-05T15:05:41.842Z,3.90
2022-09-05T15:08:33.258Z,4.10
2022-09-05T15:12:16.061Z,4.05
2022-09-05T15:13:57.355Z,4.32
2022-09-05T15:16:28.867Z,4.05
2022-09-05T15:18:58.626Z,3.90
2022-09-05T15:21:34.354Z,3.55
2022-09-05T15:24:17.176Z,3.70
2022-09-05T15:26:51.943Z,3.83
2022-09-05T15:29:24.696Z,3.60
2022-09-05T15:32:07.615Z,3.85
2022-09-05T15:34:38.848Z,4.03
2022-09-05T15:37:24.242Z,4.57
2022-09-05T15:40:21.969Z,3.90
2022-09-05T15:42:55.296Z,3.50
2022-09-05T15:45:27.469Z,4.07
2022-09-05T15:48:14.730Z,3.63
2022-09-05T15:50:46.119Z,3.90
2022-09-05T15:53:24.172Z,3.80
2022-09-05T15:56:00.120Z,4.18
2022-09-05T15:58:52.383Z,3.60
2022-09-05T16:01:46.411Z,3.90
2022-09-05T16:06:00.824Z,3.28
2022-09-05T16:10:31.653Z,3.85
2022-09-05T16:10:41.148Z,3.53
2022-09-05T16:12:43.637Z,3.53
2022-09-05T16:17:04.649Z,3.60
2022-09-05T16:23:15.774Z,3.88
2022-09-05T16:23:31.435Z,3.30
2022-09-05T16:23:49.200Z,3.70
2022-09-05T16:26:25.646Z,4.00
2022-09-05T16:28:59.182Z,4.13
2022-09-05T16:31:37.537Z,3.90
2022-09-05T16:34:10.335Z,3.95
2022-09-05T16:37:07.142Z,3.90
2022-09-05T16:39:38.662Z,3.83
2022-09-05T16:42:13.595Z,3.83
2022-09-05T16:44:46.797Z,4.25
2022-09-05T16:47:23.266Z,4.38
2022-09-05T16:49:58.763Z,4.05
2022-09-05T16:52:36.701Z,4.22
2022-09-05T16:55:11.986Z,4.03
2022-09-05T16:57:43.394Z,4.60
2022-09-05T17:00:12.838Z,4.50
2022-09-05T17:02:44.301Z,4.28
2022-09-05T17:05:14.277Z,4.55
2022-09-05T17:08:05.064Z,4.88
2022-09-05T17:10:35.994Z,5.00
2022-09-05T17:13:04.494Z,4.78
2022-09-05T17:15:36.030Z,5.10
2022-09-05T17:18:21.610Z,4.53
2022-09-05T17:20:54.999Z,4.55
2022-09-05T17:29:19.470Z,4.70
2022-09-05T17:29:28.327Z,4.40
2022-09-05T17:32:45.666Z,4.22
2022-09-05T17:35:26.805Z,3.85
2022-09-05T17:38:29.120Z,4.32
2022-09-05T17:41:51.451Z,4.70
2022-09-05T17:44:23.326Z,4.35
2022-09-05T17:47:08.098Z,3.78
2022-09-05T17:49:45.059Z,3.83
2022-09-05T17:52:24.186Z,4.70
2022-09-05T17:54:55.515Z,4.10
2022-09-05T17:57:51.228Z,2.90
2022-09-05T18:01:07.612Z,3.80
2022-09-05T18:04:16.789Z,3.17
2022-09-05T18:07:00.697Z,3.22
2022-09-05T18:10:12.842Z,3.70
2022-09-05T18:13:12.984Z,3.03
2022-09-05T18:16:11.793Z,3.20
2022-09-05T18:21:48.522Z,4.53
2022-09-05T18:24:33.662Z,4.80
2022-09-05T18:27:37.849Z,3.75
2022-09-05T18:30:07.462Z,4.97
2022-09-05T18:32:45.322Z,5.07
2022-09-05T18:35:37.798Z,4.72
2022-09-05T18:38:51.909Z,4.50
2022-09-05T18:41:22.651Z,4.18
2022-09-05T18:44:13.683Z,4.53
2022-09-05T18:46:50.376Z,4.65
2022-09-05T18:50:23.239Z,4.90
2022-09-05T18:52:23.964Z,4.55
2022-09-05T18:56:11.425Z,4.97
2022-09-05T18:57:50.149Z,5.60
2022-09-05T19:00:35.045Z,5.32
2022-09-05T19:03:16.993Z,5.15
2022-09-05T19:05:49.073Z,5.35
2022-09-05T19:08:28.785Z,5.18
2022-09-05T19:11:09.191Z,5.70
2022-09-05T19:13:50.990Z,6.20
2022-09-05T19:16:47.281Z,6.28
2022-09-05T19:19:18.606Z,5.53
2022-09-05T19:22:07.063Z,5.80
2022-09-05T19:24:45.050Z,5.93
2022-09-05T19:30:31.135Z,5.57
2022-09-05T19:36:46.846Z,5.75
2022-09-05T19:36:50.766Z,5.68
2022-09-05T19:37:22.140Z,6.45
2022-09-05T19:40:15.728Z,5.97
2022-09-05T19:47:27.670Z,5.85
2022-09-05T19:47:39.307Z,6.07
2022-09-05T19:47:43.634Z,6.32
2022-09-05T19:50:11.506Z,6.15
2022-09-05T19:52:40.847Z,5.68
2022-09-05T19:55:21.958Z,6.13
2022-09-05T19:58:18.437Z,5.97
2022-09-05T20:00:41.856Z,6.13
2022-09-05T20:03:21.014Z,5.60
2022-09-05T20:05:51.569Z,6.28
2022-09-05T20:08:31.842Z,6.13
2022-09-05T20:11:03.869Z,5.90
2022-09-05T20:13:32.495Z,5.90
2022-09-05T20:16:02.061Z,5.70
2022-09-05T20:18:37.518Z,5.18
2022-09-05T20:21:11.239Z,6.00
2022-09-05T20:23:42.353Z,5.22
2022-09-05T20:26:11.041Z,5.85
2022-09-05T20:28:40.177Z,5.78
2022-09-05T20:31:13.357Z,5.50
2022-09-05T20:33:48.156Z,5.95
2022-09-05T20:43:11.040Z,5.82
2022-09-05T20:43:19.263Z,6.07
2022-09-05T20:43:32.031Z,5.82
2022-09-05T20:44:55.622Z,5.10
2022-09-05T20:52:49.060Z,5.60
2022-09-05T20:54:12.677Z,5.50
2022-09-05T20:54:22.575Z,5.22
2022-09-05T20:56:11.135Z,4.95
2022-09-05T20:58:39.898Z,5.00
2022-09-05T21:01:21.354Z,5.32
2022-09-05T21:03:59.049Z,5.13
2022-09-05T21:06:33.877Z,5.05
2022-09-05T21:09:24.560Z,5.35
2022-09-05T21:11:54.134Z,5.00
2022-09-05T21:14:24.220Z,4.93
2022-09-05T21:16:58.814Z,4.65
2022-09-05T21:19:31.241Z,4.82
2022-09-05T21:22:05.287Z,5.05
2022-09-05T21:24:34.966Z,5.25
2022-09-05T21:27:17.455Z,4.95
2022-09-05T21:29:46.891Z,5.10
2022-09-05T21:32:22.922Z,5.18
2022-09-05T21:34:55.123Z,4.80
2022-09-05T21:37:24.627Z,4.35
2022-09-05T21:39:58.625Z,4.90
2022-09-05T21:47:33.785Z,5.43
2022-09-05T21:47:46.871Z,5.00
2022-09-05T21:48:08.633Z,5.13
2022-09-05T21:50:40.926Z,5.18
2022-09-05T21:55:10.705Z,5.35
2022-09-05T21:59:21.007Z,5.22
2022-09-05T21:59:30.399Z,4.78
2022-09-05T22:01:52.464Z,5.22
2022-09-05T22:04:22.666Z,4.50
2022-09-05T22:06:53.190Z,5.10
2022-09-05T22:09:23.758Z,4.75
2022-09-05T22:11:53.752Z,5.40
2022-09-05T22:14:23.864Z,4.88
2022-09-05T22:16:54.406Z,4.80
2022-09-05T22:19:36.765Z,4.57
2022-09-05T22:22:16.627Z,4.97
2022-09-05T22:24:51.096Z,4.75
2022-09-05T22:27:21.101Z,4.95
2022-09-05T22:29:50.496Z,4.80
2022-09-05T22:32:34.711Z,4.70
2022-09-05T22:35:27.977Z,4.28
2022-09-05T22:38:07.128Z,5.15
2022-09-05T22:40:39.025Z,4.65
2022-09-05T22:43:11.426Z,4.88
2022-09-05T22:45:41.571Z,4.63
2022-09-05T22:48:11.527Z,4.95
2022-09-05T22:50:40.294Z,4.28
2022-09-05T22:53:09.891Z,4.32
2022-09-05T22:55:40.893Z,4.72
2022-09-05T22:58:11.969Z,4.45
2022-09-05T23:00:41.738Z,4.65
2022-09-05T23:03:10.326Z,4.20
2022-09-05T23:05:38.757Z,4.20
2022-09-05T23:08:07.772Z,4.18
2022-09-05T23:10:36.805Z,4.32
2022-09-05T23:13:06.301Z,4.18
2022-09-05T23:15:36.230Z,4.30
2022-09-05T23:18:05.431Z,4.10
2022-09-05T23:20:34.296Z,4.15
2022-09-05T23:23:05.138Z,3.92
2022-09-05T23:25:33.749Z,3.80
2022-09-05T23:28:06.818Z,4.00
2022-09-05T23:30:36.975Z,4.20
2022-09-05T23:33:07.012Z,3.55
2022-09-05T23:35:35.494Z,3.97
2022-09-05T23:38:03.931Z,4.05
2022-09-05T23:40:32.375Z,4.10
2022-09-05T23:43:01.385Z,3.80
2022-09-05T23:45:30.005Z,3.80
2022-09-05T23:48:00.207Z,3.70
2022-09-05T23:50:28.868Z,3.50
2022-09-05T23:52:57.999Z,4.13
2022-09-05T23:55:27.282Z,3.78
2022-09-05T23:57:58.390Z,3.40
